sensor_id;sensor_type;location;lat;lon;timestamp;P1;durP1;ratioP1;P2;durP2;ratioP2
10246;SDS011;5168;47.854;7.944;2022-07-29T00:01:20;4.50;;;3.10;;
10246;SDS011;5168;47.854;7.944;2022-07-29T00:03:47;3.23;;;2.83;;
10246;SDS011;5168;47.854;7.944;2022-07-29T00:06:13;3.67;;;3.10;;
10246;SDS011;5168;47.854;7.944;2022-07-29T00:08:39;4.37;;;2.90;;
10246;SDS011;5168;47.854;7.944;2022-07-29T00:11:04;3.50;;;2.87;;
10246;SDS011;5168;47.854;7.944;2022-07-29T00:13:30;4.03;;;3.27;;
10246;SDS011;5168;47.854;7.944;2022-07-29T00:15:56;3.67;;;3.00;;
10246;SDS011;5168;47.854;7.944;2022-07-29T00:18:21;3.07;;;2.77;;
10246;SDS011;5168;47.854;7.944;2022-07-29T00:20:47;3.30;;;3.00;;
10246;SDS011;5168;47.854;7.944;2022-07-29T00:23:13;4.03;;;3.20;;
10246;SDS011;5168;47.854;7.944;2022-07-29T00:25:39;3.60;;;2.87;;
10246;SDS011;5168;47.854;7.944;2022-07-29T00:28:04;3.27;;;2.83;;
10246;SDS011;5168;47.854;7.944;2022-07-29T00:30:30;2.80;;;2.60;;
10246;SDS011;5168;47.854;7.944;2022-07-29T00:32:56;2.80;;;2.60;;
10246;SDS011;5168;47.854;7.944;2022-07-29T00:35:22;2.90;;;2.60;;
10246;SDS011;5168;47.854;7.944;2022-07-29T00:38:07;2.90;;;2.60;;
10246;SDS011;5168;47.854;7.944;2022-07-29T00:40:32;3.40;;;3.10;;
10246;SDS011;5168;47.854;7.944;2022-07-29T00:42:59;3.27;;;2.97;;
10246;SDS011;5168;47.854;7.944;2022-07-29T00:45:25;3.33;;;2.90;;
10246;SDS011;5168;47.854;7.944;2022-07-29T00:47:50;3.73;;;3.27;;
10246;SDS011;5168;47.854;7.944;2022-07-29T00:50:16;3.33;;;3.07;;
10246;SDS011;5168;47.854;7.944;2022-07-29T00:52:43;3.20;;;2.90;;
10246;SDS011;5168;47.854;7.944;2022-07-29T00:55:10;3.50;;;3.20;;
10246;SDS011;5168;47.854;7.944;2022-07-29T00:57:37;3.00;;;2.73;;
10246;SDS011;5168;47.854;7.944;2022-07-29T01:00:04;3.13;;;2.90;;
10246;SDS011;5168;47.854;7.944;2022-07-29T01:02:31;3.20;;;2.90;;
10246;SDS011;5168;47.854;7.944;2022-07-29T01:04:56;3.20;;;2.90;;
10246;SDS011;5168;47.854;7.944;2022-07-29T01:07:23;3.60;;;3.30;;
10246;SDS011;5168;47.854;7.944;2022-07-29T01:09:50;3.03;;;2.73;;
10246;SDS011;5168;47.854;7.944;2022-07-29T01:12:17;4.40;;;3.30;;
10246;SDS011;5168;47.854;7.944;2022-07-29T01:14:46;3.40;;;3.10;;
10246;SDS011;5168;47.854;7.944;2022-07-29T01:17:26;4.00;;;3.60;;
10246;SDS011;5168;47.854;7.944;2022-07-29T01:20:03;3.70;;;2.93;;
10246;SDS011;5168;47.854;7.944;2022-07-29T01:25:10;3.50;;;3.20;;
10246;SDS011;5168;47.854;7.944;2022-07-29T01:30:24;5.07;;;3.83;;
10246;SDS011;5168;47.854;7.944;2022-07-29T01:32:53;4.00;;;3.27;;
10246;SDS011;5168;47.854;7.944;2022-07-29T01:35:24;3.83;;;3.53;;
10246;SDS011;5168;47.854;7.944;2022-07-29T01:38:12;3.10;;;2.90;;
10246;SDS011;5168;47.854;7.944;2022-07-29T01:40:52;3.30;;;3.00;;
10246;SDS011;5168;47.854;7.944;2022-07-29T01:43:26;3.37;;;3.07;;
10246;SDS011;5168;47.854;7.944;2022-07-29T01:45:59;3.60;;;3.30;;
10246;SDS011;5168;47.854;7.944;2022-07-29T01:48:31;3.50;;;3.20;;
10246;SDS011;5168;47.854;7.944;2022-07-29T01:53:53;5.27;;;3.50;;
10246;SDS011;5168;47.854;7.944;2022-07-29T01:56:29;3.77;;;3.40;;
10246;SDS011;5168;47.854;7.944;2022-07-29T01:59:00;3.67;;;3.33;;
10246;SDS011;5168;47.854;7.944;2022-07-29T02:01:27;3.93;;;3.50;;
10246;SDS011;5168;47.854;7.944;2022-07-29T02:03:56;4.17;;;3.20;;
10246;SDS011;5168;47.854;7.944;2022-07-29T02:06:24;3.80;;;3.40;;
10246;SDS011;5168;47.854;7.944;2022-07-29T02:08:51;3.30;;;3.00;;
10246;SDS011;5168;47.854;7.944;2022-07-29T02:11:18;3.80;;;3.40;;
10246;SDS011;5168;47.854;7.944;2022-07-29T02:13:44;3.83;;;3.30;;
10246;SDS011;5168;47.854;7.944;2022-07-29T02:16:12;3.50;;;3.20;;
10246;SDS011;5168;47.854;7.944;2022-07-29T02:18:40;3.60;;;3.00;;
10246;SDS011;5168;47.854;7.944;2022-07-29T02:21:09;4.10;;;3.70;;
10246;SDS011;5168;47.854;7.944;2022-07-29T02:23:35;3.37;;;3.07;;
10246;SDS011;5168;47.854;7.944;2022-07-29T02:26:04;3.50;;;3.20;;
10246;SDS011;5168;47.854;7.944;2022-07-29T02:28:31;3.80;;;3.03;;
10246;SDS011;5168;47.854;7.944;2022-07-29T02:30:59;3.30;;;2.90;;
10246;SDS011;5168;47.854;7.944;2022-07-29T02:33:27;5.13;;;3.60;;
10246;SDS011;5168;47.854;7.944;2022-07-29T02:35:54;3.60;;;3.30;;
10246;SDS011;5168;47.854;7.944;2022-07-29T02:38:21;4.50;;;3.40;;
10246;SDS011;5168;47.854;7.944;2022-07-29T02:41:10;5.97;;;3.67;;
10246;SDS011;5168;47.854;7.944;2022-07-29T02:43:38;5.50;;;3.53;;
10246;SDS011;5168;47.854;7.944;2022-07-29T02:46:05;5.50;;;3.67;;
10246;SDS011;5168;47.854;7.944;2022-07-29T02:48:41;3.40;;;3.10;;
10246;SDS011;5168;47.854;7.944;2022-07-29T02:51:18;3.33;;;2.87;;
10246;SDS011;5168;47.854;7.944;2022-07-29T02:53:49;3.70;;;3.40;;
10246;SDS011;5168;47.854;7.944;2022-07-29T02:56:16;3.30;;;3.00;;
10246;SDS011;5168;47.854;7.944;2022-07-29T02:58:45;3.40;;;3.10;;
10246;SDS011;5168;47.854;7.944;2022-07-29T03:01:21;3.30;;;2.83;;
10246;SDS011;5168;47.854;7.944;2022-07-29T03:03:49;3.03;;;2.77;;
10246;SDS011;5168;47.854;7.944;2022-07-29T03:06:18;3.23;;;2.93;;
10246;SDS011;5168;47.854;7.944;2022-07-29T03:08:46;3.10;;;2.80;;
10246;SDS011;5168;47.854;7.944;2022-07-29T03:11:12;3.50;;;3.20;;
10246;SDS011;5168;47.854;7.944;2022-07-29T03:13:39;3.20;;;3.00;;
10246;SDS011;5168;47.854;7.944;2022-07-29T03:16:05;3.73;;;3.13;;
10246;SDS011;5168;47.854;7.944;2022-07-29T03:18:31;3.50;;;3.20;;
10246;SDS011;5168;47.854;7.944;2022-07-29T03:20:57;3.23;;;2.93;;
10246;SDS011;5168;47.854;7.944;2022-07-29T03:23:23;3.30;;;3.00;;
10246;SDS011;5168;47.854;7.944;2022-07-29T03:25:51;4.00;;;3.20;;
10246;SDS011;5168;47.854;7.944;2022-07-29T03:28:17;3.50;;;3.07;;
10246;SDS011;5168;47.854;7.944;2022-07-29T03:30:43;3.40;;;3.10;;
10246;SDS011;5168;47.854;7.944;2022-07-29T03:33:08;2.73;;;2.50;;
10246;SDS011;5168;47.854;7.944;2022-07-29T03:35:34;2.80;;;2.60;;
10246;SDS011;5168;47.854;7.944;2022-07-29T03:38:00;4.00;;;2.90;;
10246;SDS011;5168;47.854;7.944;2022-07-29T03:40:27;3.00;;;2.70;;
10246;SDS011;5168;47.854;7.944;2022-07-29T03:42:58;2.80;;;2.60;;
10246;SDS011;5168;47.854;7.944;2022-07-29T03:45:25;4.67;;;2.67;;
10246;SDS011;5168;47.854;7.944;2022-07-29T03:47:55;2.83;;;2.63;;
10246;SDS011;5168;47.854;7.944;2022-07-29T03:50:26;4.33;;;3.30;;
10246;SDS011;5168;47.854;7.944;2022-07-29T03:52:53;3.60;;;3.00;;
10246;SDS011;5168;47.854;7.944;2022-07-29T03:55:19;3.37;;;2.70;;
10246;SDS011;5168;47.854;7.944;2022-07-29T03:57:45;3.10;;;2.80;;
10246;SDS011;5168;47.854;7.944;2022-07-29T04:00:12;2.80;;;2.60;;
10246;SDS011;5168;47.854;7.944;2022-07-29T04:02:40;2.97;;;2.67;;
10246;SDS011;5168;47.854;7.944;2022-07-29T04:05:12;2.97;;;2.67;;
10246;SDS011;5168;47.854;7.944;2022-07-29T04:07:38;3.03;;;2.77;;
10246;SDS011;5168;47.854;7.944;2022-07-29T04:10:08;2.57;;;2.37;;
10246;SDS011;5168;47.854;7.944;2022-07-29T04:12:33;3.00;;;2.70;;
10246;SDS011;5168;47.854;7.944;2022-07-29T04:14:59;2.63;;;2.33;;
10246;SDS011;5168;47.854;7.944;2022-07-29T04:17:24;2.83;;;2.40;;
10246;SDS011;5168;47.854;7.944;2022-07-29T04:19:50;2.70;;;2.40;;
10246;SDS011;5168;47.854;7.944;2022-07-29T04:22:15;3.03;;;2.70;;
10246;SDS011;5168;47.854;7.944;2022-07-29T04:24:41;2.43;;;2.23;;
10246;SDS011;5168;47.854;7.944;2022-07-29T04:27:07;2.40;;;2.20;;
10246;SDS011;5168;47.854;7.944;2022-07-29T04:29:33;2.97;;;2.67;;
10246;SDS011;5168;47.854;7.944;2022-07-29T04:31:59;1.97;;;1.87;;
10246;SDS011;5168;47.854;7.944;2022-07-29T04:34:24;3.43;;;2.63;;
10246;SDS011;5168;47.854;7.944;2022-07-29T04:36:50;2.43;;;2.23;;
10246;SDS011;5168;47.854;7.944;2022-07-29T04:39:15;5.20;;;2.47;;
10246;SDS011;5168;47.854;7.944;2022-07-29T04:41:43;2.67;;;2.47;;
10246;SDS011;5168;47.854;7.944;2022-07-29T04:44:08;2.50;;;2.30;;
10246;SDS011;5168;47.854;7.944;2022-07-29T04:46:34;3.13;;;2.50;;
10246;SDS011;5168;47.854;7.944;2022-07-29T04:49:00;2.43;;;2.23;;
10246;SDS011;5168;47.854;7.944;2022-07-29T04:51:26;2.20;;;1.93;;
10246;SDS011;5168;47.854;7.944;2022-07-29T04:53:52;2.37;;;2.17;;
10246;SDS011;5168;47.854;7.944;2022-07-29T04:56:18;3.80;;;2.23;;
10246;SDS011;5168;47.854;7.944;2022-07-29T04:58:43;2.50;;;2.30;;
10246;SDS011;5168;47.854;7.944;2022-07-29T05:01:09;3.33;;;2.30;;
10246;SDS011;5168;47.854;7.944;2022-07-29T05:03:35;2.50;;;2.30;;
10246;SDS011;5168;47.854;7.944;2022-07-29T05:06:01;2.23;;;1.90;;
10246;SDS011;5168;47.854;7.944;2022-07-29T05:08:27;2.87;;;2.17;;
10246;SDS011;5168;47.854;7.944;2022-07-29T05:10:52;2.83;;;2.40;;
10246;SDS011;5168;47.854;7.944;2022-07-29T05:13:18;2.30;;;2.10;;
10246;SDS011;5168;47.854;7.944;2022-07-29T05:15:44;4.13;;;2.33;;
10246;SDS011;5168;47.854;7.944;2022-07-29T05:18:10;2.40;;;2.20;;
10246;SDS011;5168;47.854;7.944;2022-07-29T05:20:36;2.37;;;2.17;;
10246;SDS011;5168;47.854;7.944;2022-07-29T05:23:02;2.67;;;2.20;;
10246;SDS011;5168;47.854;7.944;2022-07-29T05:25:28;3.33;;;2.40;;
10246;SDS011;5168;47.854;7.944;2022-07-29T05:27:54;2.33;;;2.00;;
10246;SDS011;5168;47.854;7.944;2022-07-29T05:30:21;2.20;;;2.00;;
10246;SDS011;5168;47.854;7.944;2022-07-29T05:32:47;2.50;;;2.30;;
10246;SDS011;5168;47.854;7.944;2022-07-29T05:35:13;2.60;;;2.30;;
10246;SDS011;5168;47.854;7.944;2022-07-29T05:37:39;2.50;;;2.30;;
10246;SDS011;5168;47.854;7.944;2022-07-29T05:40:05;2.37;;;2.17;;
10246;SDS011;5168;47.854;7.944;2022-07-29T05:42:31;2.27;;;2.07;;
10246;SDS011;5168;47.854;7.944;2022-07-29T05:44:57;2.40;;;2.20;;
10246;SDS011;5168;47.854;7.944;2022-07-29T05:47:23;1.97;;;1.83;;
10246;SDS011;5168;47.854;7.944;2022-07-29T05:49:50;1.77;;;1.67;;
10246;SDS011;5168;47.854;7.944;2022-07-29T05:52:15;1.97;;;1.83;;
10246;SDS011;5168;47.854;7.944;2022-07-29T05:54:41;1.93;;;1.83;;
10246;SDS011;5168;47.854;7.944;2022-07-29T05:57:07;3.33;;;2.67;;
10246;SDS011;5168;47.854;7.944;2022-07-29T05:59:36;2.30;;;2.10;;
10246;SDS011;5168;47.854;7.944;2022-07-29T06:02:03;2.20;;;2.00;;
10246;SDS011;5168;47.854;7.944;2022-07-29T06:04:29;2.47;;;2.00;;
10246;SDS011;5168;47.854;7.944;2022-07-29T06:06:55;2.70;;;2.20;;
10246;SDS011;5168;47.854;7.944;2022-07-29T06:09:22;2.43;;;2.23;;
10246;SDS011;5168;47.854;7.944;2022-07-29T06:11:47;2.10;;;1.90;;
10246;SDS011;5168;47.854;7.944;2022-07-29T06:14:13;4.43;;;2.30;;
10246;SDS011;5168;47.854;7.944;2022-07-29T06:16:39;3.20;;;2.40;;
10246;SDS011;5168;47.854;7.944;2022-07-29T06:19:05;2.40;;;2.20;;
10246;SDS011;5168;47.854;7.944;2022-07-29T06:21:30;3.20;;;2.87;;
10246;SDS011;5168;47.854;7.944;2022-07-29T06:23:56;3.93;;;2.83;;
10246;SDS011;5168;47.854;7.944;2022-07-29T06:26:22;3.07;;;2.77;;
10246;SDS011;5168;47.854;7.944;2022-07-29T06:28:48;2.60;;;2.40;;
10246;SDS011;5168;47.854;7.944;2022-07-29T06:31:13;2.30;;;2.10;;
10246;SDS011;5168;47.854;7.944;2022-07-29T06:33:39;2.53;;;2.17;;
10246;SDS011;5168;47.854;7.944;2022-07-29T06:36:05;2.80;;;2.50;;
10246;SDS011;5168;47.854;7.944;2022-07-29T06:38:32;2.77;;;2.50;;
10246;SDS011;5168;47.854;7.944;2022-07-29T06:40:58;3.67;;;2.33;;
10246;SDS011;5168;47.854;7.944;2022-07-29T06:46:01;2.50;;;2.20;;
10246;SDS011;5168;47.854;7.944;2022-07-29T06:48:28;3.50;;;2.33;;
10246;SDS011;5168;47.854;7.944;2022-07-29T06:50:54;3.20;;;2.40;;
10246;SDS011;5168;47.854;7.944;2022-07-29T06:53:20;3.43;;;2.47;;
10246;SDS011;5168;47.854;7.944;2022-07-29T06:55:46;3.53;;;2.60;;
10246;SDS011;5168;47.854;7.944;2022-07-29T06:58:12;3.13;;;2.50;;
10246;SDS011;5168;47.854;7.944;2022-07-29T07:00:39;3.00;;;2.70;;
10246;SDS011;5168;47.854;7.944;2022-07-29T07:03:05;3.03;;;2.43;;
10246;SDS011;5168;47.854;7.944;2022-07-29T07:05:30;2.90;;;2.30;;
10246;SDS011;5168;47.854;7.944;2022-07-29T07:07:56;2.40;;;2.00;;
10246;SDS011;5168;47.854;7.944;2022-07-29T07:10:22;4.03;;;2.10;;
10246;SDS011;5168;47.854;7.944;2022-07-29T07:12:48;2.67;;;1.90;;
10246;SDS011;5168;47.854;7.944;2022-07-29T07:15:13;2.00;;;1.80;;
10246;SDS011;5168;47.854;7.944;2022-07-29T07:17:39;3.00;;;2.37;;
10246;SDS011;5168;47.854;7.944;2022-07-29T07:20:05;3.47;;;1.93;;
10246;SDS011;5168;47.854;7.944;2022-07-29T07:22:31;3.23;;;1.90;;
10246;SDS011;5168;47.854;7.944;2022-07-29T07:24:57;4.80;;;2.70;;
10246;SDS011;5168;47.854;7.944;2022-07-29T07:27:23;3.37;;;2.80;;
10246;SDS011;5168;47.854;7.944;2022-07-29T07:29:49;4.70;;;2.27;;
10246;SDS011;5168;47.854;7.944;2022-07-29T07:32:14;5.10;;;2.30;;
10246;SDS011;5168;47.854;7.944;2022-07-29T07:34:41;2.43;;;2.23;;
10246;SDS011;5168;47.854;7.944;2022-07-29T07:37:08;3.47;;;2.77;;
10246;SDS011;5168;47.854;7.944;2022-07-29T07:39:33;2.87;;;2.43;;
10246;SDS011;5168;47.854;7.944;2022-07-29T07:41:59;2.90;;;2.20;;
10246;SDS011;5168;47.854;7.944;2022-07-29T07:44:25;2.47;;;2.27;;
10246;SDS011;5168;47.854;7.944;2022-07-29T07:46:51;5.03;;;2.53;;
10246;SDS011;5168;47.854;7.944;2022-07-29T07:49:17;4.87;;;2.90;;
10246;SDS011;5168;47.854;7.944;2022-07-29T07:51:43;7.40;;;2.77;;
10246;SDS011;5168;47.854;7.944;2022-07-29T07:54:08;4.67;;;2.70;;
10246;SDS011;5168;47.854;7.944;2022-07-29T07:56:35;3.57;;;2.50;;
10246;SDS011;5168;47.854;7.944;2022-07-29T07:59:00;3.00;;;2.60;;
10246;SDS011;5168;47.854;7.944;2022-07-29T08:01:26;5.40;;;2.37;;
10246;SDS011;5168;47.854;7.944;2022-07-29T08:03:52;7.03;;;2.77;;
10246;SDS011;5168;47.854;7.944;2022-07-29T08:06:18;2.83;;;2.50;;
10246;SDS011;5168;47.854;7.944;2022-07-29T08:08:44;3.53;;;2.50;;
10246;SDS011;5168;47.854;7.944;2022-07-29T08:11:09;3.53;;;2.90;;
10246;SDS011;5168;47.854;7.944;2022-07-29T08:13:35;6.43;;;2.97;;
10246;SDS011;5168;47.854;7.944;2022-07-29T08:16:02;3.80;;;2.80;;
10246;SDS011;5168;47.854;7.944;2022-07-29T08:18:38;3.30;;;2.60;;
10246;SDS011;5168;47.854;7.944;2022-07-29T08:21:04;3.30;;;2.70;;
10246;SDS011;5168;47.854;7.944;2022-07-29T08:23:30;3.87;;;2.57;;
10246;SDS011;5168;47.854;7.944;2022-07-29T08:26:10;2.80;;;2.60;;
10246;SDS011;5168;47.854;7.944;2022-07-29T08:28:38;6.83;;;3.20;;
10246;SDS011;5168;47.854;7.944;2022-07-29T08:31:04;3.37;;;2.60;;
10246;SDS011;5168;47.854;7.944;2022-07-29T08:33:30;3.33;;;2.87;;
10246;SDS011;5168;47.854;7.944;2022-07-29T08:35:56;3.07;;;2.80;;
10246;SDS011;5168;47.854;7.944;2022-07-29T08:38:21;2.73;;;2.53;;
10246;SDS011;5168;47.854;7.944;2022-07-29T08:40:47;4.00;;;3.03;;
10246;SDS011;5168;47.854;7.944;2022-07-29T08:43:13;3.23;;;2.80;;
10246;SDS011;5168;47.854;7.944;2022-07-29T08:45:46;3.13;;;2.90;;
10246;SDS011;5168;47.854;7.944;2022-07-29T08:48:14;3.43;;;2.90;;
10246;SDS011;5168;47.854;7.944;2022-07-29T08:50:41;2.90;;;2.70;;
10246;SDS011;5168;47.854;7.944;2022-07-29T08:53:09;2.80;;;2.60;;
10246;SDS011;5168;47.854;7.944;2022-07-29T08:55:38;2.60;;;2.40;;
10246;SDS011;5168;47.854;7.944;2022-07-29T08:58:07;4.67;;;2.77;;
10246;SDS011;5168;47.854;7.944;2022-07-29T09:00:33;4.07;;;2.80;;
10246;SDS011;5168;47.854;7.944;2022-07-29T09:03:00;3.07;;;2.80;;
10246;SDS011;5168;47.854;7.944;2022-07-29T09:05:27;4.30;;;2.97;;
10246;SDS011;5168;47.854;7.944;2022-07-29T09:07:53;5.03;;;3.07;;
10246;SDS011;5168;47.854;7.944;2022-07-29T09:10:19;3.30;;;2.97;;
10246;SDS011;5168;47.854;7.944;2022-07-29T09:12:45;3.70;;;3.33;;
10246;SDS011;5168;47.854;7.944;2022-07-29T09:15:11;4.43;;;2.80;;
10246;SDS011;5168;47.854;7.944;2022-07-29T09:17:43;3.27;;;3.00;;
10246;SDS011;5168;47.854;7.944;2022-07-29T09:20:10;4.07;;;2.77;;
10246;SDS011;5168;47.854;7.944;2022-07-29T09:22:38;3.13;;;2.83;;
10246;SDS011;5168;47.854;7.944;2022-07-29T09:25:04;3.07;;;2.87;;
10246;SDS011;5168;47.854;7.944;2022-07-29T09:27:30;4.77;;;3.07;;
10246;SDS011;5168;47.854;7.944;2022-07-29T09:29:56;3.73;;;2.70;;
10246;SDS011;5168;47.854;7.944;2022-07-29T09:32:23;5.03;;;2.90;;
10246;SDS011;5168;47.854;7.944;2022-07-29T09:34:49;2.83;;;2.50;;
10246;SDS011;5168;47.854;7.944;2022-07-29T09:37:27;5.47;;;2.50;;
10246;SDS011;5168;47.854;7.944;2022-07-29T09:39:53;2.70;;;2.50;;
10246;SDS011;5168;47.854;7.944;2022-07-29T09:42:29;4.17;;;2.60;;
10246;SDS011;5168;47.854;7.944;2022-07-29T09:44:57;4.23;;;2.67;;
10246;SDS011;5168;47.854;7.944;2022-07-29T09:47:25;3.53;;;2.63;;
10246;SDS011;5168;47.854;7.944;2022-07-29T09:50:13;3.37;;;2.47;;
10246;SDS011;5168;47.854;7.944;2022-07-29T09:52:48;3.83;;;2.37;;
10246;SDS011;5168;47.854;7.944;2022-07-29T09:55:15;5.03;;;2.67;;
10246;SDS011;5168;47.854;7.944;2022-07-29T09:57:41;3.47;;;2.30;;
10246;SDS011;5168;47.854;7.944;2022-07-29T10:00:08;4.80;;;2.47;;
10246;SDS011;5168;47.854;7.944;2022-07-29T10:02:36;2.30;;;2.10;;
10246;SDS011;5168;47.854;7.944;2022-07-29T10:05:05;3.67;;;2.40;;
10246;SDS011;5168;47.854;7.944;2022-07-29T10:07:43;4.90;;;2.80;;
10246;SDS011;5168;47.854;7.944;2022-07-29T10:10:10;6.83;;;2.27;;
10246;SDS011;5168;47.854;7.944;2022-07-29T10:12:47;3.13;;;2.20;;
10246;SDS011;5168;47.854;7.944;2022-07-29T10:15:15;2.92;;;2.63;;
10246;SDS011;5168;47.854;7.944;2022-07-29T10:17:40;3.20;;;2.40;;
10246;SDS011;5168;47.854;7.944;2022-07-29T10:20:07;2.60;;;2.40;;
10246;SDS011;5168;47.854;7.944;2022-07-29T10:22:33;2.80;;;2.40;;
10246;SDS011;5168;47.854;7.944;2022-07-29T10:24:59;3.00;;;2.70;;
10246;SDS011;5168;47.854;7.944;2022-07-29T10:27:24;2.80;;;2.23;;
10246;SDS011;5168;47.854;7.944;2022-07-29T10:29:50;5.20;;;2.87;;
10246;SDS011;5168;47.854;7.944;2022-07-29T10:32:20;3.80;;;2.53;;
10246;SDS011;5168;47.854;7.944;2022-07-29T10:43:41;2.35;;;2.15;;
10246;SDS011;5168;47.854;7.944;2022-07-29T10:46:10;2.70;;;2.50;;
10246;SDS011;5168;47.854;7.944;2022-07-29T10:49:03;3.07;;;2.60;;
10246;SDS011;5168;47.854;7.944;2022-07-29T10:54:15;7.13;;;2.43;;
10246;SDS011;5168;47.854;7.944;2022-07-29T10:56:41;2.97;;;2.20;;
10246;SDS011;5168;47.854;7.944;2022-07-29T11:01:45;2.80;;;2.57;;
10246;SDS011;5168;47.854;7.944;2022-07-29T11:04:12;2.78;;;2.30;;
10246;SDS011;5168;47.854;7.944;2022-07-29T11:09:25;3.13;;;2.40;;
10246;SDS011;5168;47.854;7.944;2022-07-29T11:11:50;3.10;;;2.80;;
10246;SDS011;5168;47.854;7.944;2022-07-29T11:14:17;2.78;;;2.55;;
10246;SDS011;5168;47.854;7.944;2022-07-29T11:16:59;5.47;;;2.63;;
10246;SDS011;5168;47.854;7.944;2022-07-29T11:19:27;3.10;;;2.40;;
10246;SDS011;5168;47.854;7.944;2022-07-29T11:21:53;2.80;;;2.33;;
10246;SDS011;5168;47.854;7.944;2022-07-29T11:24:20;4.15;;;2.63;;
10246;SDS011;5168;47.854;7.944;2022-07-29T11:27:35;3.22;;;2.33;;
10246;SDS011;5168;47.854;7.944;2022-07-29T11:29:51;3.47;;;2.33;;
10246;SDS011;5168;47.854;7.944;2022-07-29T11:32:22;3.60;;;2.60;;
10246;SDS011;5168;47.854;7.944;2022-07-29T11:35:09;7.33;;;2.47;;
10246;SDS011;5168;47.854;7.944;2022-07-29T11:37:37;2.67;;;2.20;;
10246;SDS011;5168;47.854;7.944;2022-07-29T11:47:39;3.57;;;2.40;;
10246;SDS011;5168;47.854;7.944;2022-07-29T11:50:07;3.43;;;2.67;;
10246;SDS011;5168;47.854;7.944;2022-07-29T11:52:38;3.10;;;2.80;;
10246;SDS011;5168;47.854;7.944;2022-07-29T11:55:10;3.17;;;2.30;;
10246;SDS011;5168;47.854;7.944;2022-07-29T11:57:46;3.60;;;2.40;;
10246;SDS011;5168;47.854;7.944;2022-07-29T12:00:16;3.30;;;2.63;;
10246;SDS011;5168;47.854;7.944;2022-07-29T12:02:57;2.90;;;2.57;;
10246;SDS011;5168;47.854;7.944;2022-07-29T12:05:34;2.40;;;2.20;;
10246;SDS011;5168;47.854;7.944;2022-07-29T12:10:37;3.00;;;2.50;;
10246;SDS011;5168;47.854;7.944;2022-07-29T12:13:03;8.83;;;2.87;;
10246;SDS011;5168;47.854;7.944;2022-07-29T12:15:29;3.27;;;2.97;;
10246;SDS011;5168;47.854;7.944;2022-07-29T12:17:55;5.30;;;2.50;;
10246;SDS011;5168;47.854;7.944;2022-07-29T12:20:22;4.37;;;2.50;;
10246;SDS011;5168;47.854;7.944;2022-07-29T12:22:49;2.67;;;2.20;;
10246;SDS011;5168;47.854;7.944;2022-07-29T12:25:15;2.60;;;2.40;;
10246;SDS011;5168;47.854;7.944;2022-07-29T12:27:42;3.80;;;2.60;;
10246;SDS011;5168;47.854;7.944;2022-07-29T12:30:09;4.77;;;3.00;;
10246;SDS011;5168;47.854;7.944;2022-07-29T12:32:46;5.60;;;2.67;;
10246;SDS011;5168;47.854;7.944;2022-07-29T12:35:19;4.40;;;2.70;;
10246;SDS011;5168;47.854;7.944;2022-07-29T12:37:46;3.90;;;2.87;;
10246;SDS011;5168;47.854;7.944;2022-07-29T12:40:13;3.23;;;2.73;;
10246;SDS011;5168;47.854;7.944;2022-07-29T12:42:41;3.80;;;3.00;;
10246;SDS011;5168;47.854;7.944;2022-07-29T12:45:29;4.10;;;3.10;;
10246;SDS011;5168;47.854;7.944;2022-07-29T12:47:55;4.40;;;2.77;;
10246;SDS011;5168;47.854;7.944;2022-07-29T12:50:21;4.20;;;2.90;;
10246;SDS011;5168;47.854;7.944;2022-07-29T12:52:47;3.80;;;2.70;;
10246;SDS011;5168;47.854;7.944;2022-07-29T12:55:13;3.17;;;2.90;;
10246;SDS011;5168;47.854;7.944;2022-07-29T12:57:49;3.43;;;3.13;;
10246;SDS011;5168;47.854;7.944;2022-07-29T13:00:21;4.07;;;3.10;;
10246;SDS011;5168;47.854;7.944;2022-07-29T13:02:56;3.23;;;2.93;;
10246;SDS011;5168;47.854;7.944;2022-07-29T13:05:23;3.37;;;2.90;;
10246;SDS011;5168;47.854;7.944;2022-07-29T13:07:49;3.53;;;3.03;;
10246;SDS011;5168;47.854;7.944;2022-07-29T13:13:23;3.17;;;2.80;;
10246;SDS011;5168;47.854;7.944;2022-07-29T13:15:31;3.67;;;3.13;;
10246;SDS011;5168;47.854;7.944;2022-07-29T13:17:57;3.53;;;2.63;;
10246;SDS011;5168;47.854;7.944;2022-07-29T13:20:24;3.10;;;2.80;;
10246;SDS011;5168;47.854;7.944;2022-07-29T13:22:52;4.27;;;2.53;;
10246;SDS011;5168;47.854;7.944;2022-07-29T13:25:29;3.07;;;2.77;;
10246;SDS011;5168;47.854;7.944;2022-07-29T13:27:56;5.13;;;3.03;;
10246;SDS011;5168;47.854;7.944;2022-07-29T13:30:23;4.13;;;3.00;;
10246;SDS011;5168;47.854;7.944;2022-07-29T13:32:49;3.83;;;2.93;;
10246;SDS011;5168;47.854;7.944;2022-07-29T13:35:16;3.67;;;2.90;;
10246;SDS011;5168;47.854;7.944;2022-07-29T13:37:42;6.83;;;2.77;;
10246;SDS011;5168;47.854;7.944;2022-07-29T13:40:08;6.60;;;3.40;;
10246;SDS011;5168;47.854;7.944;2022-07-29T13:42:34;3.47;;;3.10;;
10246;SDS011;5168;47.854;7.944;2022-07-29T13:45:00;3.40;;;3.10;;
10246;SDS011;5168;47.854;7.944;2022-07-29T13:47:27;4.47;;;3.03;;
10246;SDS011;5168;47.854;7.944;2022-07-29T13:49:53;3.47;;;3.17;;
10246;SDS011;5168;47.854;7.944;2022-07-29T13:52:19;3.40;;;3.10;;
10246;SDS011;5168;47.854;7.944;2022-07-29T13:54:45;3.57;;;3.27;;
10246;SDS011;5168;47.854;7.944;2022-07-29T13:57:11;3.50;;;3.20;;
10246;SDS011;5168;47.854;7.944;2022-07-29T13:59:38;3.17;;;2.83;;
10246;SDS011;5168;47.854;7.944;2022-07-29T14:02:04;3.80;;;3.27;;
10246;SDS011;5168;47.854;7.944;2022-07-29T14:04:30;4.50;;;3.53;;
10246;SDS011;5168;47.854;7.944;2022-07-29T14:06:56;4.30;;;3.50;;
10246;SDS011;5168;47.854;7.944;2022-07-29T14:09:22;3.57;;;3.27;;
10246;SDS011;5168;47.854;7.944;2022-07-29T14:11:48;3.43;;;2.93;;
10246;SDS011;5168;47.854;7.944;2022-07-29T14:14:16;4.60;;;2.90;;
10246;SDS011;5168;47.854;7.944;2022-07-29T14:16:42;5.13;;;3.30;;
10246;SDS011;5168;47.854;7.944;2022-07-29T14:19:08;3.73;;;3.07;;
10246;SDS011;5168;47.854;7.944;2022-07-29T14:21:33;3.20;;;2.90;;
10246;SDS011;5168;47.854;7.944;2022-07-29T14:23:59;3.67;;;3.37;;
10246;SDS011;5168;47.854;7.944;2022-07-29T14:26:25;4.53;;;3.53;;
10246;SDS011;5168;47.854;7.944;2022-07-29T14:28:51;3.53;;;3.10;;
10246;SDS011;5168;47.854;7.944;2022-07-29T14:31:17;5.50;;;3.53;;
10246;SDS011;5168;47.854;7.944;2022-07-29T14:33:42;5.83;;;3.00;;
10246;SDS011;5168;47.854;7.944;2022-07-29T14:36:08;8.23;;;3.27;;
10246;SDS011;5168;47.854;7.944;2022-07-29T14:38:34;3.70;;;2.90;;
10246;SDS011;5168;47.854;7.944;2022-07-29T14:41:00;3.10;;;2.80;;
10246;SDS011;5168;47.854;7.944;2022-07-29T14:43:26;4.23;;;3.00;;
10246;SDS011;5168;47.854;7.944;2022-07-29T14:45:52;4.07;;;2.93;;
10246;SDS011;5168;47.854;7.944;2022-07-29T14:48:18;3.20;;;2.90;;
10246;SDS011;5168;47.854;7.944;2022-07-29T14:50:44;3.50;;;3.20;;
10246;SDS011;5168;47.854;7.944;2022-07-29T14:53:09;4.30;;;3.30;;
10246;SDS011;5168;47.854;7.944;2022-07-29T14:55:36;4.90;;;3.40;;
10246;SDS011;5168;47.854;7.944;2022-07-29T14:58:02;6.23;;;3.23;;
10246;SDS011;5168;47.854;7.944;2022-07-29T15:00:28;3.90;;;2.93;;
10246;SDS011;5168;47.854;7.944;2022-07-29T15:02:57;3.43;;;3.13;;
10246;SDS011;5168;47.854;7.944;2022-07-29T15:05:23;3.23;;;2.93;;
10246;SDS011;5168;47.854;7.944;2022-07-29T15:07:49;3.40;;;3.07;;
10246;SDS011;5168;47.854;7.944;2022-07-29T15:10:14;3.07;;;2.77;;
10246;SDS011;5168;47.854;7.944;2022-07-29T15:12:40;5.63;;;3.00;;
10246;SDS011;5168;47.854;7.944;2022-07-29T15:15:06;3.50;;;3.20;;
10246;SDS011;5168;47.854;7.944;2022-07-29T15:17:32;5.43;;;2.97;;
10246;SDS011;5168;47.854;7.944;2022-07-29T15:19:58;3.13;;;2.40;;
10246;SDS011;5168;47.854;7.944;2022-07-29T15:22:24;3.17;;;2.60;;
10246;SDS011;5168;47.854;7.944;2022-07-29T15:24:50;3.73;;;2.40;;
10246;SDS011;5168;47.854;7.944;2022-07-29T15:27:15;3.03;;;2.50;;
10246;SDS011;5168;47.854;7.944;2022-07-29T15:29:41;3.20;;;2.50;;
10246;SDS011;5168;47.854;7.944;2022-07-29T15:32:07;5.80;;;2.20;;
10246;SDS011;5168;47.854;7.944;2022-07-29T15:34:34;4.70;;;2.60;;
10246;SDS011;5168;47.854;7.944;2022-07-29T15:36:59;3.53;;;2.27;;
10246;SDS011;5168;47.854;7.944;2022-07-29T15:39:27;3.27;;;2.47;;
10246;SDS011;5168;47.854;7.944;2022-07-29T15:41:52;4.57;;;2.30;;
10246;SDS011;5168;47.854;7.944;2022-07-29T15:44:18;4.17;;;2.47;;